Airport Name : Port Hardy

Other Name : Port Hardy

ICAO : CYZT

IATA : YZT

FAA :

Latitude : 50.680556

Longitude : -127.366667

Country : Canada

Local Date and Time : 29 May 2024 22:50

 

TAF (Terminal Aerodrome Forecast)

TAF AMD CYZT 300514Z 3005/3013 28005KT P6SM FEW010 BKN025 BKN060 TEMPO 3005/3013 SCT010 BKN020 BKN060 RMK NXT FCST BY 300700Z

 

METAR (METeorological Aerodrome Report)

CYZT 300500Z 28005KT 240V340 15SM FEW011 BKN024 BKN060 09/07 A3038 RMK SF1SC5CU1 SF TR SLP291

CYZT 300400Z 00000KT 20SM BKN028 BKN058 BKN220 09/08 A3037 RMK SC5CU1CI1 SH DIST E SLP287

CYZT 300339Z 16003KT 120V200 20SM BKN027 BKN054 BKN079 BKN220 09/08 A3037 RMK SC5SC1AC1CI1 CI TR SLP286

CYZT 300300Z 15004KT 140V210 20SM FEW016 SCT028 BKN058 BKN080 BKN220 10/08 A3037 RMK CU1SC2SC2AC1CI1 OCNL -SHRA SLP286

CYZT 300200Z 01004KT 310V020 15SM FEW015 SCT033 BKN042 BKN093 BKN220 10/07 A3036 RMK CU1SC2SC2AC1CI1 OCNL -SHRA SLP284